M I D A S
Marine Information and Data Acquisition System
Tripno 1995 of the Zeeleeuw from 2010-10-15 06:34:42 to 2010-10-15 12:35:42
Back to CruiseResearch ActivitiesStationsMapUnderway DataData graphs

EquipmentUnitsComments
TimeDGPSUTC
LatitudeDGPSDM.mWGS84
LongitudeDGPSDM.mWGS84
SpeedMeteo Stationm/sRelative wind speed
DirectionMeteo StationdegRelative wind direction
TemperatureMeteo Stationdeg CelciusAir temperature
PressureMeteo StationPaAtmospheric pressure
HumidityMeteo Station%Relative humidity
Missing or incorrect values are displayed as -999
Metereological data collected by the RV Zeeleeuw from 2010-10-15 05:58:29 to 2010-10-15 13:40:07
Time Latitude Longitude Speed Direction Temperature Pressure Humidity
2010-10-15 05:59 51°13.664 2°55.96 -999 78 11.4 101650 48
2010-10-15 06:00 51°13.664 2°55.96 -999 78 11.4 101650 48
2010-10-15 06:01 51°13.664 2°55.96 -999 78 11.4 101650 48
2010-10-15 06:02 51°13.664 2°55.961 -999 78 11.4 101650 47
2010-10-15 06:03 51°13.663 2°55.96 -999 78 11.5 101650 48
2010-10-15 06:04 51°13.663 2°55.96 -999 78 11.5 101650 48
2010-10-15 06:05 51°13.663 2°55.961 -999 78 11.5 101650 48
2010-10-15 06:06 51°13.663 2°55.96 -999 78 11.5 101650 48
2010-10-15 06:07 51°13.663 2°55.959 -999 78 11.5 101650 48
2010-10-15 06:08 51°13.663 2°55.959 -999 78 11.5 101650 48
2010-10-15 06:09 51°13.663 2°55.959 -999 78 11.5 101650 48
2010-10-15 06:10 51°13.662 2°55.961 -999 78 11.5 101650 47
2010-10-15 06:11 51°13.662 2°55.961 -999 78 11.5 101650 48
2010-10-15 06:12 51°13.662 2°55.962 -999 78 11.5 101650 48
2010-10-15 06:13 51°13.662 2°55.962 -999 78 11.5 101650 48
2010-10-15 06:14 51°13.662 2°55.961 -999 78 11.5 101650 48
2010-10-15 06:15 51°13.662 2°55.961 -999 78 11.5 101650 48
2010-10-15 06:16 51°13.662 2°55.96 -999 42 11.5 101650 48
2010-10-15 06:17 51°13.662 2°55.96 -999 42 11.6 101640 48
2010-10-15 06:18 51°13.662 2°55.961 -999 54 -999 -999 -999
2010-10-15 06:19 51°13.662 2°55.961 -999 306 11.6 101640 49
2010-10-15 06:20 51°13.662 2°55.961 -999 308 11.5 101640 48
2010-10-15 06:21 51°13.662 2°55.961 0.5 328 11.5 101640 48
2010-10-15 06:22 51°13.663 2°55.961 -999 306 11.5 101640 48
2010-10-15 06:23 51°13.663 2°55.961 -999 306 11.5 101640 48
2010-10-15 06:24 51°13.663 2°55.96 -999 341 11.5 101640 48
2010-10-15 06:25 51°13.662 2°55.961 0.1 306 11.6 101640 48
2010-10-15 06:26 51°13.662 2°55.96 2.3 327 11.5 101640 46
2010-10-15 06:27 51°13.662 2°55.96 0.1 327 11.5 101640 50
2010-10-15 06:28 51°13.662 2°55.96 0.1 337 11.5 101640 48
2010-10-15 06:29 51°13.663 2°55.959 2 305 11.5 101640 48
2010-10-15 06:30 51°13.664 2°55.958 0.6 306 11.5 101640 47
2010-10-15 06:31 51°13.664 2°55.957 1.7 307 11.5 101640 50
2010-10-15 06:32 51°13.664 2°55.958 1.5 306 11.5 101640 48
2010-10-15 06:33 51°13.663 2°55.958 2.2 326 11.4 101640 46
2010-10-15 06:34 51°13.664 2°55.956 1.9 340 11.4 101640 47
2010-10-15 06:35 51°13.677 2°55.904 0.1 349 11.3 101640 50
2010-10-15 06:36 51°13.694 2°55.794 2 4 11.4 101640 48
2010-10-15 06:37 51°13.693 2°55.727 2.4 14 11.3 101640 47
2010-10-15 06:38 51°13.717 2°55.731 0.4 52 11.3 101640 51
2010-10-15 06:39 51°13.793 2°55.666 -999 337 11.3 101640 48
2010-10-15 06:40 51°13.925 2°55.562 -999 337 11.3 101640 48
2010-10-15 06:41 51°14.074 2°55.45 -999 325 11.3 101640 48
2010-10-15 06:42 51°14.211 2°55.333 1.5 302 11.3 101640 48
2010-10-15 06:43 51°14.335 2°55.212 2 303 11.3 101630 46
2010-10-15 06:44 51°14.459 2°55.091 0.7 327 11.3 101630 47
2010-10-15 06:45 51°14.607 2°54.957 2.6 330 11.3 101640 51
2010-10-15 06:46 51°14.785 2°54.8 3.3 331 11.3 101630 47
2010-10-15 06:47 51°14.987 2°54.672 3.6 335 11.3 101640 47
2010-10-15 06:48 51°15.163 2°54.482 2.8 331 11.3 101640 47
2010-10-15 06:49 51°15.331 2°54.261 3.1 331 11.3 101650 49
2010-10-15 06:50 51°15.492 2°54.03 3.4 329 11.3 101660 47
2010-10-15 06:51 51°15.646 2°53.789 3 328 11.3 101650 51
2010-10-15 06:52 51°15.799 2°53.549 2.5 331 11.4 101650 47
2010-10-15 06:53 51°15.982 2°53.362 3.5 338 11.5 101650 46
2010-10-15 06:54 51°16.173 2°53.189 3.5 338 11.5 101650 47
2010-10-15 06:55 51°16.366 2°53.014 3.3 340 11.5 101650 50
2010-10-15 06:56 51°16.559 2°52.843 3 337 11.6 101650 47
2010-10-15 06:57 51°16.758 2°52.695 3.6 341 11.6 101650 47
2010-10-15 06:58 51°16.958 2°52.548 4.6 342 11.7 101660 47
2010-10-15 06:59 51°17.159 2°52.397 3.8 343 11.7 101660 48
2010-10-15 07:00 51°17.36 2°52.245 3.9 341 11.6 101660 47
2010-10-15 07:01 51°17.562 2°52.09 3.9 337 11.7 101660 51
2010-10-15 07:02 51°17.763 2°51.935 3.8 339 11.7 101660 49
2010-10-15 07:03 51°17.962 2°51.781 4.1 341 11.7 101670 47
2010-10-15 07:04 51°18.161 2°51.626 4.5 338 11.8 101670 47
2010-10-15 07:05 51°18.361 2°51.469 4.3 340 11.8 101670 49
2010-10-15 07:06 51°18.56 2°51.313 4 339 11.9 101670 48
2010-10-15 07:07 51°18.76 2°51.157 4.5 338 11.8 101660 48
2010-10-15 07:08 51°18.959 2°50.999 4.3 335 12 101660 47
2010-10-15 07:09 51°19.159 2°50.842 5.8 339 11.9 101650 49
2010-10-15 07:10 51°19.358 2°50.684 5 342 11.8 101650 47
2010-10-15 07:11 51°19.556 2°50.525 5.9 338 11.9 101660 49
2010-10-15 07:12 51°19.751 2°50.363 7.2 338 11.8 101660 46
2010-10-15 07:13 51°19.947 2°50.203 7.2 344 11.8 101660 47
2010-10-15 07:14 51°20.145 2°50.045 7.3 337 12 101650 49
2010-10-15 07:15 51°20.339 2°49.889 8 343 12 101660 49
2010-10-15 07:16 51°20.537 2°49.734 7.5 338 12.1 101650 49
2010-10-15 07:17 51°20.734 2°49.577 8.4 341 12.2 101650 47
2010-10-15 07:18 51°20.933 2°49.418 7.8 339 12.2 101650 49
2010-10-15 07:19 51°21.145 2°49.304 8.6 342 12.3 101650 46
2010-10-15 07:20 51°21.363 2°49.203 8.6 342 12.4 101650 48
2010-10-15 07:21 51°21.552 2°49.021 7.4 342 12.4 101650 49
2010-10-15 07:22 51°21.727 2°48.807 7.2 341 12.4 101650 48
2010-10-15 07:23 51°21.903 2°48.588 6.6 345 12.5 101660 48
2010-10-15 07:24 51°22.061 2°48.355 6.5 345 12.5 101650 45
2010-10-15 07:25 51°22.223 2°48.125 8.1 346 12.6 101670 45
2010-10-15 07:26 51°22.385 2°47.897 7.4 346 12.6 101670 49
2010-10-15 07:27 51°22.55 2°47.671 6.9 345 12.6 101670 46
2010-10-15 07:28 51°22.716 2°47.444 7.7 346 12.7 101660 48
2010-10-15 07:29 51°22.883 2°47.217 6.3 345 12.7 101660 48
2010-10-15 07:30 51°23.048 2°46.989 6.9 343 12.7 101660 47
2010-10-15 07:31 51°23.216 2°46.76 7.3 342 12.7 101660 47
2010-10-15 07:32 51°23.384 2°46.53 7.5 346 12.7 101670 48
2010-10-15 07:33 51°23.581 2°46.37 8.3 343 12.7 101670 46
2010-10-15 07:34 51°23.793 2°46.252 7.3 345 12.8 101660 48
2010-10-15 07:35 51°24.009 2°46.143 6.7 342 12.8 101660 46
2010-10-15 07:36 51°24.214 2°46.003 8.4 345 12.8 101680 48
2010-10-15 07:37 51°24.374 2°45.772 5.3 345 12.8 101670 45
2010-10-15 07:38 51°24.483 2°45.48 6.5 351 12.9 101680 45
2010-10-15 07:39 51°24.57 2°45.171 4.5 352 12.9 101680 48
2010-10-15 07:40 51°24.634 2°44.85 4.1 354 12.9 101680 45
2010-10-15 07:41 51°24.662 2°44.526 4.5 348 12.9 101680 48
2010-10-15 07:42 51°24.649 2°44.301 0.3 16 12.9 101680 46
2010-10-15 07:43 51°24.638 2°44.13 0.1 28 12.9 101680 47
2010-10-15 07:44 51°24.641 2°44.014 -999 28 12.9 101690 47
2010-10-15 07:45 51°24.633 2°43.925 0.2 36 12.9 101680 47
2010-10-15 07:46 51°24.645 2°43.85 0.1 40 12.9 101690 46
2010-10-15 07:47 51°24.643 2°43.796 1.7 41 12.9 101680 48
2010-10-15 07:48 51°24.66 2°43.746 3.3 30 13 101680 49
2010-10-15 07:49 51°24.677 2°43.725 3.3 37 12.9 101670 49
2010-10-15 07:50 51°24.686 2°43.729 4.5 28 12.9 101690 45
2010-10-15 07:51 51°24.695 2°43.736 4.2 30 12.9 101690 45
2010-10-15 07:52 51°24.705 2°43.735 4.6 38 12.9 101680 45
2010-10-15 07:53 51°24.713 2°43.682 2.2 52 12.9 101700 47
2010-10-15 07:54 51°24.678 2°43.673 5.5 302 12.9 101690 45
2010-10-15 07:55 51°24.669 2°43.697 4.1 309 13 101690 46
2010-10-15 07:56 51°24.669 2°43.718 3.8 307 12.9 101690 48
2010-10-15 07:57 51°24.673 2°43.737 4 309 13 101690 49
2010-10-15 07:58 51°24.677 2°43.755 4.5 302 12.9 101690 49
2010-10-15 07:59 51°24.682 2°43.767 3.9 308 12.8 101690 48
2010-10-15 08:00 51°24.706 2°43.745 5.1 305 12.8 101700 48
2010-10-15 08:01 51°24.706 2°43.746 2.8 302 12.8 101700 46
2010-10-15 08:02 51°24.69 2°43.74 3 51 12.8 101700 46
2010-10-15 08:03 51°24.673 2°43.722 2.6 54 12.7 101700 48
2010-10-15 08:04 51°24.669 2°43.709 3.9 51 12.8 101700 47
2010-10-15 08:05 51°24.669 2°43.702 3.5 53 12.8 101700 45
2010-10-15 08:06 51°24.671 2°43.694 3.6 56 12.9 101700 49
2010-10-15 08:07 51°24.672 2°43.688 3.6 53 12.9 101700 45
2010-10-15 08:08 51°24.674 2°43.682 3.6 53 12.8 101710 45
2010-10-15 08:09 51°24.674 2°43.677 3.6 51 12.7 101690 49
2010-10-15 08:10 51°24.683 2°43.688 3.6 51 12.6 101700 45
2010-10-15 08:11 51°24.7 2°43.723 4.3 52 12.7 101700 45
2010-10-15 08:12 51°24.68 2°43.718 3.1 307 12.6 101690 45
2010-10-15 08:13 51°24.66 2°43.719 4.3 305 12.6 101700 45
2010-10-15 08:14 51°24.659 2°43.726 4.2 308 12.6 101700 46
2010-10-15 08:15 51°24.661 2°43.735 4.8 306 12.6 101690 49
2010-10-15 08:16 51°24.662 2°43.745 4.1 308 12.6 101690 45
2010-10-15 08:17 51°24.663 2°43.757 3.9 303 12.7 101700 45
2010-10-15 08:18 51°24.665 2°43.77 3.9 307 12.7 101700 49
2010-10-15 08:19 51°24.661 2°43.788 4.7 308 12.6 101690 49
2010-10-15 08:20 51°24.647 2°43.8 3.4 51 12.6 101700 45
2010-10-15 08:21 51°24.654 2°43.801 2 51 12.5 101700 45
2010-10-15 08:22 51°24.657 2°43.76 3 57 12.6 101690 47
2010-10-15 08:23 51°24.668 2°43.733 3.3 40 12.7 101690 45
2010-10-15 08:24 51°24.679 2°43.725 2.7 53 12.7 101690 46
2010-10-15 08:25 51°24.686 2°43.727 2.8 54 12.8 101700 46
2010-10-15 08:26 51°24.693 2°43.729 2.9 40 12.7 101690 46
2010-10-15 08:27 51°24.699 2°43.731 3.3 35 12.7 101690 47
2010-10-15 08:28 51°24.705 2°43.735 4.2 43 12.7 101690 46
2010-10-15 08:29 51°24.707 2°43.748 3.7 53 12.6 101690 48
2010-10-15 08:30 51°24.706 2°43.772 0.3 53 12.6 101700 46
2010-10-15 08:31 51°24.68 2°43.718 3.2 303 12.7 101690 45
2010-10-15 08:32 51°24.665 2°43.701 1.9 309 12.7 101690 48
2010-10-15 08:33 51°24.662 2°43.695 2.2 57 12.7 101690 45
2010-10-15 08:34 51°24.662 2°43.688 3.2 58 12.6 101680 46
2010-10-15 08:35 51°24.664 2°43.68 2.2 55 12.6 101680 48
2010-10-15 08:36 51°24.668 2°43.676 2.7 54 12.5 101690 45
2010-10-15 08:37 51°24.676 2°43.691 3 54 12.5 101690 50
2010-10-15 08:38 51°24.691 2°43.719 3.1 52 12.6 101680 46
2010-10-15 08:39 51°24.678 2°43.707 1.7 309 12.5 101680 46
2010-10-15 08:40 51°24.658 2°43.683 1.9 307 12.6 101690 48
2010-10-15 08:41 51°24.652 2°43.682 2.6 303 12.6 101680 47
2010-10-15 08:42 51°24.653 2°43.686 3.4 307 12.6 101690 46
2010-10-15 08:43 51°24.656 2°43.691 3.4 302 12.6 101680 50
2010-10-15 08:44 51°24.658 2°43.695 3.3 308 12.7 101680 49
2010-10-15 08:45 51°24.658 2°43.703 3.5 302 12.7 101680 49
2010-10-15 08:46 51°24.662 2°43.706 2.7 307 12.7 101680 47
2010-10-15 08:47 51°24.667 2°43.709 2.9 308 12.7 101680 49
2010-10-15 08:48 51°24.671 2°43.713 3 306 12.7 101680 47
2010-10-15 08:49 51°24.674 2°43.719 2.1 308 12.6 101680 47
2010-10-15 08:50 51°24.679 2°43.725 2.5 309 12.6 101680 46
2010-10-15 08:51 51°24.682 2°43.73 2.1 325 12.6 101680 46
2010-10-15 08:52 51°24.686 2°43.737 2.2 324 12.5 101690 46
2010-10-15 08:53 51°24.689 2°43.743 2.9 309 12.6 101680 46
2010-10-15 08:54 51°24.693 2°43.749 2.2 301 12.5 101690 45
2010-10-15 08:55 51°24.696 2°43.755 2.7 307 12.5 101680 48
2010-10-15 08:56 51°24.699 2°43.761 2 302 12.5 101690 49
2010-10-15 08:57 51°24.702 2°43.767 1.8 307 12.6 101690 49
2010-10-15 08:58 51°24.705 2°43.774 2.1 324 12.5 101680 45
2010-10-15 08:59 51°24.708 2°43.782 1.8 306 12.5 101680 43
2010-10-15 09:00 51°24.708 2°43.795 2 326 12.5 101690 44
2010-10-15 09:01 51°24.709 2°43.859 3.7 338 12.5 101690 48
2010-10-15 09:02 51°24.771 2°43.996 5.5 339 12.5 101680 44
2010-10-15 09:03 51°24.864 2°44.195 6.1 342 12.5 101670 46
2010-10-15 09:04 51°24.957 2°44.407 6 341 12.5 101670 44
2010-10-15 09:05 51°25.055 2°44.623 7.4 338 12.5 101680 44
2010-10-15 09:06 51°25.17 2°44.877 6.4 339 12.6 101680 46
2010-10-15 09:07 51°25.305 2°45.131 7 338 12.6 101670 47
2010-10-15 09:08 51°25.468 2°45.376 8.1 336 12.7 101660 45
2010-10-15 09:09 51°25.632 2°45.622 7.8 340 12.7 101680 48
2010-10-15 09:10 51°25.793 2°45.872 7.1 340 12.7 101660 48
2010-10-15 09:11 51°25.954 2°46.123 7.3 339 12.7 101660 49
2010-10-15 09:12 51°26.115 2°46.378 5 340 12.7 101670 49
2010-10-15 09:13 51°26.277 2°46.63 7 339 12.7 101680 46
2010-10-15 09:14 51°26.438 2°46.886 7.3 340 12.7 101680 49
2010-10-15 09:15 51°26.619 2°47.104 5.3 337 12.7 101680 45
2010-10-15 09:16 51°26.806 2°47.307 6.6 340 12.6 101680 45
2010-10-15 09:17 51°26.993 2°47.513 6.9 337 12.6 101690 45
2010-10-15 09:18 51°27.18 2°47.719 6.6 337 12.6 101680 45
2010-10-15 09:19 51°27.369 2°47.927 7.2 333 12.6 101680 45
2010-10-15 09:20 51°27.557 2°48.134 6.4 335 12.6 101680 45
2010-10-15 09:21 51°27.746 2°48.344 5.8 334 12.6 101670 46
2010-10-15 09:22 51°27.933 2°48.56 6.4 335 12.7 101670 48
2010-10-15 09:23 51°28.115 2°48.785 6.7 337 12.7 101680 46
2010-10-15 09:24 51°28.291 2°49.018 6.9 333 12.6 101680 47
2010-10-15 09:25 51°28.469 2°49.251 8 335 12.6 101690 48
2010-10-15 09:26 51°28.647 2°49.479 6.5 335 12.7 101680 47
2010-10-15 09:27 51°28.822 2°49.704 7.1 332 12.7 101680 47
2010-10-15 09:28 51°28.997 2°49.931 9.1 330 12.7 101680 46
2010-10-15 09:29 51°29.172 2°50.16 6.4 329 12.8 101670 45
2010-10-15 09:30 51°29.338 2°50.4 8.9 327 12.8 101700 46
2010-10-15 09:31 51°29.504 2°50.643 9.2 323 12.8 101680 47
2010-10-15 09:32 51°29.67 2°50.885 9.7 323 12.7 101670 47
2010-10-15 09:33 51°29.835 2°51.129 7.2 328 12.6 101680 46
2010-10-15 09:34 51°30 2°51.368 8 327 12.4 101690 45
2010-10-15 09:35 51°30.167 2°51.609 7.3 326 12.3 101680 47
2010-10-15 09:36 51°30.335 2°51.849 7 327 12.2 101680 45
2010-10-15 09:37 51°30.504 2°52.089 6 325 12.2 101680 45
2010-10-15 09:38 51°30.673 2°52.329 5.6 324 12.2 101680 45
2010-10-15 09:39 51°30.843 2°52.567 8.1 332 12.2 101680 47
2010-10-15 09:40 51°31.013 2°52.805 7.9 331 12.2 101680 45
2010-10-15 09:41 51°31.18 2°53.045 7.4 329 12.3 101670 45
2010-10-15 09:42 51°31.348 2°53.284 7.6 329 12.4 101680 46
2010-10-15 09:43 51°31.518 2°53.527 8 333 12.4 101690 45
2010-10-15 09:44 51°31.689 2°53.769 6.2 335 12.4 101680 45
2010-10-15 09:45 51°31.858 2°54.013 7.7 329 12.5 101690 48
2010-10-15 09:46 51°32.028 2°54.257 7.4 331 12.5 101680 48
2010-10-15 09:47 51°32.196 2°54.501 7.2 331 12.6 101680 48
2010-10-15 09:48 51°32.366 2°54.741 8.3 331 12.6 101680 45
2010-10-15 09:49 51°32.528 2°54.968 6.6 335 12.6 101690 46
2010-10-15 09:50 51°32.617 2°55.101 4.3 278 12.6 101680 44
2010-10-15 09:51 51°32.65 2°55.178 2.9 307 12.7 101680 44
2010-10-15 09:52 51°32.656 2°55.214 0.1 305 12.7 101690 47
2010-10-15 09:53 51°32.658 2°55.227 -999 306 12.6 101680 46
2010-10-15 09:54 51°32.657 2°55.236 0.2 282 12.6 101680 46
2010-10-15 09:55 51°32.656 2°55.243 -999 306 12.7 101690 46
2010-10-15 09:56 51°32.654 2°55.25 -999 282 12.7 101680 46
2010-10-15 09:57 51°32.653 2°55.256 -999 282 12.7 101680 46
2010-10-15 09:58 51°32.656 2°55.259 -999 282 12.7 101680 46
2010-10-15 09:59 51°32.66 2°55.257 -999 306 12.7 101680 46
2010-10-15 10:00 51°32.667 2°55.253 -999 306 12.7 101680 46
2010-10-15 10:01 51°32.674 2°55.247 -999 306 12.7 101690 46
2010-10-15 10:02 51°32.68 2°55.24 -999 305 12.8 101680 46
2010-10-15 10:03 51°32.685 2°55.236 -999 282 12.8 101680 46
2010-10-15 10:04 51°32.688 2°55.234 0.1 306 12.8 101690 46
2010-10-15 10:05 51°32.69 2°55.232 -999 282 12.8 101690 46
2010-10-15 10:06 51°32.692 2°55.232 0.6 309 12.8 101680 46
2010-10-15 10:07 51°32.694 2°55.232 0.1 306 12.8 101680 49
2010-10-15 10:08 51°32.696 2°55.235 -999 327 12.7 101690 46
2010-10-15 10:09 51°32.697 2°55.237 0.1 305 12.7 101690 46
2010-10-15 10:10 51°32.698 2°55.239 -999 282 12.6 101680 46
2010-10-15 10:11 51°32.7 2°55.242 -999 330 12.7 101670 46
2010-10-15 10:12 51°32.701 2°55.246 0.1 326 12.7 101670 46
2010-10-15 10:13 51°32.703 2°55.249 0.1 331 12.7 101670 46
2010-10-15 10:14 51°32.705 2°55.253 -999 282 12.7 101680 46
2010-10-15 10:15 51°32.707 2°55.256 -999 347 12.7 101680 46
2010-10-15 10:16 51°32.71 2°55.259 0.1 335 12.7 101680 46
2010-10-15 10:17 51°32.713 2°55.262 -999 330 12.7 101670 46
2010-10-15 10:18 51°32.716 2°55.265 -999 330 12.7 101670 46
2010-10-15 10:19 51°32.718 2°55.266 -999 282 12.7 101670 46
2010-10-15 10:20 51°32.719 2°55.267 -999 345 12.7 101670 46
2010-10-15 10:21 51°32.72 2°55.268 -999 337 12.8 101670 46
2010-10-15 10:22 51°32.722 2°55.268 -999 345 12.8 101670 46
2010-10-15 10:23 51°32.724 2°55.268 -999 352 12.8 101680 46
2010-10-15 10:24 51°32.725 2°55.266 -999 343 12.8 101670 46
2010-10-15 10:25 51°32.727 2°55.264 -999 357 12.7 101670 45
2010-10-15 10:26 51°32.728 2°55.263 -999 360 12.8 101680 46
2010-10-15 10:27 51°32.729 2°55.261 -999 1 12.8 101670 45
2010-10-15 10:28 51°32.731 2°55.26 -999 356 12.8 101680 46
2010-10-15 10:29 51°32.732 2°55.258 -999 351 12.8 101670 46
2010-10-15 10:30 51°32.732 2°55.257 -999 1 12.8 101660 46
2010-10-15 10:31 51°32.733 2°55.255 -999 357 12.8 101670 46
2010-10-15 10:32 51°32.733 2°55.253 -999 -999 12.8 101670 45
2010-10-15 10:33 51°32.732 2°55.251 -999 344 12.8 101670 46
2010-10-15 10:34 51°32.733 2°55.25 0.1 347 12.8 101660 46
2010-10-15 10:35 51°32.733 2°55.247 0.1 350 12.8 101660 46
2010-10-15 10:36 51°32.733 2°55.245 0.1 355 12.7 101660 45
2010-10-15 10:37 51°32.733 2°55.242 0.1 358 12.7 101660 45
2010-10-15 10:38 51°32.732 2°55.244 -999 351 12.7 101660 46
2010-10-15 10:39 51°32.728 2°55.261 -999 282 12.7 101650 45
2010-10-15 10:40 51°32.717 2°55.28 -999 334 12.8 101650 46
2010-10-15 10:41 51°32.697 2°55.285 -999 282 12.8 101660 45
2010-10-15 10:42 51°32.665 2°55.232 -999 306 12.9 101650 46
2010-10-15 10:43 51°32.603 2°55.074 4.5 281 12.8 101640 44
2010-10-15 10:44 51°32.472 2°54.857 6 333 12.8 101640 47
2010-10-15 10:45 51°32.321 2°54.61 6.1 331 12.8 101650 45
2010-10-15 10:46 51°32.165 2°54.372 5.1 283 12.8 101660 46
2010-10-15 10:47 51°32.017 2°54.113 6.5 328 12.8 101640 46
2010-10-15 10:48 51°31.871 2°53.856 5.4 333 12.8 101650 47
2010-10-15 10:49 51°31.723 2°53.601 5.6 331 12.8 101650 44
2010-10-15 10:50 51°31.579 2°53.337 5.6 327 12.8 101670 46
2010-10-15 10:51 51°31.442 2°53.063 6.7 326 12.9 101650 44
2010-10-15 10:52 51°31.342 2°52.816 2.9 308 12.9 101650 44
2010-10-15 10:53 51°31.341 2°52.673 0.1 305 12.9 101660 45
2010-10-15 10:54 51°31.328 2°52.601 -999 306 12.9 101650 45
2010-10-15 10:55 51°31.326 2°52.593 0.2 54 12.9 101670 46
2010-10-15 10:56 51°31.325 2°52.605 -999 306 12.9 101660 45
2010-10-15 10:57 51°31.325 2°52.609 -999 308 12.9 101660 46
2010-10-15 10:58 51°31.325 2°52.61 -999 54 13 101650 46
2010-10-15 10:59 51°31.324 2°52.608 -999 306 13 101660 46
2010-10-15 11:00 51°31.322 2°52.603 -999 306 13 101660 46
2010-10-15 11:01 51°31.319 2°52.597 -999 54 13 101650 46
2010-10-15 11:02 51°31.317 2°52.591 -999 306 13 101660 46
2010-10-15 11:03 51°31.316 2°52.586 -999 306 13 101650 45
2010-10-15 11:04 51°31.315 2°52.583 -999 59 13 101660 46
2010-10-15 11:05 51°31.314 2°52.582 -999 54 13 101660 46
2010-10-15 11:06 51°31.312 2°52.584 -999 306 12.9 101650 45
2010-10-15 11:07 51°31.31 2°52.587 -999 306 13 101660 46
2010-10-15 11:08 51°31.307 2°52.59 -999 307 13 101660 46
2010-10-15 11:09 51°31.304 2°52.59 0.1 336 13 101650 46
2010-10-15 11:10 51°31.302 2°52.589 2.1 327 12.9 101650 48
2010-10-15 11:11 51°31.3 2°52.587 3.2 307 12.9 101670 46
2010-10-15 11:12 51°31.299 2°52.586 3.2 310 12.8 101660 48
2010-10-15 11:13 51°31.298 2°52.585 3.3 330 12.7 101660 48
2010-10-15 11:14 51°31.298 2°52.582 2.9 329 12.6 101660 45
2010-10-15 11:15 51°31.298 2°52.578 2.1 328 12.5 101660 45
2010-10-15 11:16 51°31.299 2°52.575 -999 342 12.4 101650 46
2010-10-15 11:17 51°31.301 2°52.572 0.1 327 12.3 101650 47
2010-10-15 11:18 51°31.301 2°52.571 5 308 12.2 101650 45
2010-10-15 11:19 51°31.299 2°52.572 3.9 356 12.2 101640 48
2010-10-15 11:20 51°31.297 2°52.568 4.9 343 12.3 101650 45
2010-10-15 11:21 51°31.296 2°52.563 4.3 341 12.4 101650 45
2010-10-15 11:22 51°31.297 2°52.558 5.2 341 12.4 101640 45
2010-10-15 11:23 51°31.298 2°52.556 5.7 344 12.5 101630 47
2010-10-15 11:24 51°31.299 2°52.552 3.9 345 12.4 101640 47
2010-10-15 11:25 51°31.3 2°52.551 3.6 344 12.4 101630 45
2010-10-15 11:26 51°31.3 2°52.551 3.1 325 12.3 101640 48
2010-10-15 11:27 51°31.3 2°52.554 2.8 335 12.3 101640 44
2010-10-15 11:28 51°31.299 2°52.557 2.6 323 12.4 101650 45
2010-10-15 11:29 51°31.299 2°52.558 2.7 333 12.4 101640 49
2010-10-15 11:30 51°31.298 2°52.558 4.6 306 12.4 101640 45
2010-10-15 11:31 51°31.296 2°52.561 5.7 308 12.4 101630 45
2010-10-15 11:32 51°31.294 2°52.566 6.3 309 12.3 101630 47
2010-10-15 11:33 51°31.293 2°52.571 7 307 12.3 101620 46
2010-10-15 11:34 51°31.292 2°52.574 6.2 308 12.5 101620 47
2010-10-15 11:35 51°31.29 2°52.576 5.1 326 12.6 101610 47
2010-10-15 11:36 51°31.29 2°52.576 5.4 301 12.6 101620 44
2010-10-15 11:37 51°31.291 2°52.575 6 323 12.7 101630 47
2010-10-15 11:38 51°31.29 2°52.574 5.6 330 12.8 101630 44
2010-10-15 11:39 51°31.289 2°52.571 6.4 333 12.8 101610 44
2010-10-15 11:40 51°31.291 2°52.566 6 333 12.9 101610 44
2010-10-15 11:41 51°31.292 2°52.563 6.2 329 12.9 101620 44
2010-10-15 11:42 51°31.291 2°52.563 5.1 310 12.9 101610 46
2010-10-15 11:43 51°31.29 2°52.568 6 301 12.9 101600 43
2010-10-15 11:44 51°31.291 2°52.573 4.9 309 13 101610 44
2010-10-15 11:45 51°31.291 2°52.576 6.1 303 13 101610 43
2010-10-15 11:46 51°31.29 2°52.575 5.2 325 12.9 101610 44
2010-10-15 11:47 51°31.29 2°52.574 5.7 331 13 101600 44
2010-10-15 11:48 51°31.29 2°52.571 4.5 301 13 101600 43
2010-10-15 11:49 51°31.289 2°52.571 5.5 325 13.1 101610 43
2010-10-15 11:50 51°31.289 2°52.569 6 326 13.1 101610 43
2010-10-15 11:51 51°31.29 2°52.568 5.4 332 13.1 101600 43
2010-10-15 11:52 51°31.29 2°52.566 5.1 332 13.1 101610 43
2010-10-15 11:53 51°31.291 2°52.566 4.9 333 13.1 101610 43
2010-10-15 11:54 51°31.291 2°52.566 4.6 323 13.3 101600 46
2010-10-15 11:55 51°31.29 2°52.568 4.6 322 13.3 101600 47
2010-10-15 11:56 51°31.29 2°52.57 4 329 13.3 101590 44
2010-10-15 11:57 51°31.29 2°52.571 4.9 328 13.3 101590 47
2010-10-15 11:58 51°31.289 2°52.572 4.9 324 13.3 101600 43
2010-10-15 11:59 51°31.29 2°52.574 4.3 304 13.3 101590 43
2010-10-15 12:00 51°31.29 2°52.574 3.9 332 13.3 101590 43
2010-10-15 12:01 51°31.29 2°52.574 4.8 328 13.3 101590 43
2010-10-15 12:02 51°31.297 2°52.572 5.5 330 13.4 101600 47
2010-10-15 12:03 51°31.306 2°52.569 4.5 329 13.4 101590 45
2010-10-15 12:04 51°31.311 2°52.569 4.2 329 13.3 101580 44
2010-10-15 12:05 51°31.31 2°52.569 3.5 326 13.3 101580 43
2010-10-15 12:06 51°31.305 2°52.571 4.8 305 13.4 101580 45
2010-10-15 12:07 51°31.307 2°52.596 6.1 302 13.4 101580 46
2010-10-15 12:08 51°31.291 2°52.662 2.7 301 13.5 101580 46
2010-10-15 12:09 51°31.212 2°52.717 -999 54 13.4 101590 47
2010-10-15 12:10 51°31.054 2°52.754 -999 340 13.4 101580 44
2010-10-15 12:11 51°30.841 2°52.78 1.6 329 13.5 101580 44
2010-10-15 12:12 51°30.608 2°52.797 1 340 13.6 101580 46
2010-10-15 12:13 51°30.38 2°52.822 0.1 359 13.5 101580 44
2010-10-15 12:14 51°30.156 2°52.838 0.1 349 13.5 101570 44
2010-10-15 12:15 51°29.925 2°52.856 0.1 310 13.5 101570 45
2010-10-15 12:16 51°29.699 2°52.875 0.2 308 13.6 101570 43
2010-10-15 12:17 51°29.474 2°52.895 0.3 306 13.6 101570 44
2010-10-15 12:18 51°29.246 2°52.913 1.1 301 13.5 101560 44
2010-10-15 12:19 51°29.084 2°52.926 -999 58 13.6 101560 44
2010-10-15 12:20 51°28.977 2°52.929 1.6 59 13.6 101570 44
2010-10-15 12:21 51°28.885 2°52.929 1.9 53 13.5 101560 44
2010-10-15 12:22 51°28.798 2°52.929 1.5 57 13.5 101560 44
2010-10-15 12:23 51°28.659 2°52.938 0.1 311 13.5 101560 44
2010-10-15 12:24 51°28.445 2°52.964 0.8 301 13.5 101560 44
2010-10-15 12:25 51°28.214 2°52.983 0.3 306 13.5 101560 45
2010-10-15 12:26 51°27.986 2°53.003 0.8 302 13.6 101550 46
2010-10-15 12:27 51°27.761 2°53.027 2.3 333 13.6 101550 43
2010-10-15 12:28 51°27.535 2°53.048 5 301 13.6 101550 44
2010-10-15 12:29 51°27.305 2°53.066 5.9 325 13.6 101540 46
2010-10-15 12:30 51°27.074 2°53.076 5.9 323 13.5 101540 45
2010-10-15 12:31 51°26.844 2°53.088 7 305 13.4 101540 45
2010-10-15 12:32 51°26.618 2°53.111 6.4 304 13.3 101540 47
2010-10-15 12:33 51°26.391 2°53.127 5.9 304 13.3 101540 46
2010-10-15 12:34 51°26.167 2°53.159 6.6 308 13.2 101530 47
2010-10-15 12:35 51°25.94 2°53.178 6.6 302 13.1 101540 49
2010-10-15 12:36 51°25.717 2°53.22 6.3 302 13 101540 49
2010-10-15 12:37 51°25.493 2°53.273 6.9 325 12.9 101540 46
2010-10-15 12:38 51°25.267 2°53.321 5.7 305 12.8 101550 48
2010-10-15 12:39 51°25.04 2°53.364 5.7 327 12.7 101540 46
2010-10-15 12:40 51°24.81 2°53.406 6.4 306 12.7 101540 49
2010-10-15 12:41 51°24.583 2°53.457 6 327 12.6 101540 48
2010-10-15 12:42 51°24.355 2°53.499 6.8 327 12.6 101540 48
2010-10-15 12:43 51°24.121 2°53.492 6.2 327 12.6 101540 46
2010-10-15 12:44 51°23.89 2°53.427 6.6 329 12.6 101540 45
2010-10-15 12:45 51°23.662 2°53.341 6.3 330 12.6 101550 45
2010-10-15 12:46 51°23.436 2°53.233 7.4 330 12.6 101550 45
2010-10-15 12:47 51°23.209 2°53.128 8 331 12.5 101550 46
2010-10-15 12:48 51°22.984 2°53.026 7.4 331 12.5 101550 47
2010-10-15 12:49 51°22.761 2°52.931 8 281 12.4 101540 48
2010-10-15 12:50 51°22.539 2°52.837 7.5 334 12.3 101550 46
2010-10-15 12:51 51°22.334 2°52.675 7.3 284 12.2 101550 46
2010-10-15 12:52 51°22.145 2°52.464 7.6 303 12.1 101550 46
2010-10-15 12:53 51°21.967 2°52.23 8.9 333 12.1 101540 46
2010-10-15 12:54 51°21.791 2°51.989 9.1 302 12 101540 48
2010-10-15 12:55 51°21.613 2°51.751 7.9 331 12 101550 44
2010-10-15 12:56 51°21.428 2°51.531 7.9 282 11.9 101530 45
2010-10-15 12:57 51°21.217 2°51.389 7.8 336 11.9 101540 48
2010-10-15 12:58 51°20.997 2°51.299 8.9 333 11.9 101540 47
2010-10-15 12:59 51°20.769 2°51.212 8.8 331 11.8 101530 45
2010-10-15 13:00 51°20.539 2°51.148 7.8 331 11.8 101530 46
2010-10-15 13:01 51°20.314 2°51.13 7.7 333 11.8 101540 45
2010-10-15 13:02 51°20.089 2°51.167 7.8 333 11.8 101530 47
2010-10-15 13:03 51°19.863 2°51.205 8.2 335 11.8 101530 44
2010-10-15 13:04 51°19.633 2°51.243 8.2 333 11.8 101530 48
2010-10-15 13:05 51°19.403 2°51.274 7.8 335 11.8 101520 47
2010-10-15 13:06 51°19.175 2°51.312 7.8 334 11.7 101530 46
2010-10-15 13:07 51°18.947 2°51.373 7.3 278 11.7 101520 48
2010-10-15 13:08 51°18.722 2°51.44 8.5 337 11.8 101520 46
2010-10-15 13:09 51°18.501 2°51.518 7.2 337 11.8 101520 48
2010-10-15 13:10 51°18.278 2°51.602 7.5 339 11.8 101510 45
2010-10-15 13:11 51°18.055 2°51.691 7.7 336 11.8 101510 45
2010-10-15 13:12 51°17.838 2°51.784 6.9 338 11.8 101520 47
2010-10-15 13:13 51°17.621 2°51.896 6.4 335 11.8 101520 48
2010-10-15 13:14 51°17.411 2°52.035 7.7 336 11.8 101520 49
2010-10-15 13:15 51°17.201 2°52.184 7.1 336 11.8 101520 47
2010-10-15 13:16 51°16.998 2°52.341 7.2 337 11.7 101510 46
2010-10-15 13:17 51°16.798 2°52.505 7.1 336 11.7 101520 48
2010-10-15 13:18 51°16.596 2°52.674 7.4 286 11.6 101510 46
2010-10-15 13:19 51°16.406 2°52.859 6.9 336 11.6 101500 44
2010-10-15 13:20 51°16.216 2°53.04 7.1 337 11.5 101510 45
2010-10-15 13:21 51°16.027 2°53.216 6.6 280 11.6 101510 49
2010-10-15 13:22 51°15.845 2°53.404 6.6 335 11.6 101510 45
2010-10-15 13:23 51°15.661 2°53.592 6.2 281 11.5 101510 48
2010-10-15 13:24 51°15.481 2°53.788 7.1 334 11.6 101510 45
2010-10-15 13:25 51°15.306 2°53.995 6.5 334 11.5 101500 45
2010-10-15 13:26 51°15.134 2°54.203 6.9 333 11.5 101500 48
2010-10-15 13:27 51°14.98 2°54.425 6.5 334 11.5 101500 44
2010-10-15 13:28 51°14.823 2°54.632 5.8 284 11.5 101500 45
2010-10-15 13:29 51°14.674 2°54.822 5.4 333 11.5 101500 49
2010-10-15 13:30 51°14.546 2°54.972 4.3 334 11.6 101500 47
2010-10-15 13:31 51°14.424 2°55.123 5 328 11.6 101500 45
2010-10-15 13:32 51°14.284 2°55.269 4.8 328 11.6 101500 47
2010-10-15 13:33 51°14.163 2°55.371 3.9 302 11.6 101500 46
2010-10-15 13:34 51°14.049 2°55.454 3.9 278 11.6 101500 48
2010-10-15 13:35 51°13.916 2°55.552 3.9 329 11.6 101500 45
2010-10-15 13:36 51°13.806 2°55.649 3.1 328 11.6 101500 48
2010-10-15 13:37 51°13.744 2°55.75 1.9 331 11.6 101500 45
2010-10-15 13:38 51°13.699 2°55.841 1.8 331 11.6 101500 45
2010-10-15 13:39 51°13.669 2°55.929 0.1 332 11.6 101500 47